createdAt,value
2017-09-29T00:02:01.220Z,13.30
2017-09-29T00:04:27.867Z,14.77
2017-09-29T00:06:54.499Z,17.70
2017-09-29T00:09:21.135Z,16.30
2017-09-29T00:11:47.768Z,16.57
2017-09-29T00:14:14.399Z,18.17
2017-09-29T00:16:41.072Z,19.10
2017-09-29T00:19:07.724Z,20.30
2017-09-29T00:21:34.348Z,20.90
2017-09-29T00:24:00.986Z,21.47
2017-09-29T00:26:27.632Z,19.10
2017-09-29T00:28:54.268Z,17.97
2017-09-29T00:31:20.919Z,18.20
2017-09-29T00:33:47.540Z,19.10
2017-09-29T00:36:14.163Z,19.87
2017-09-29T00:38:40.816Z,20.43
2017-09-29T00:41:07.431Z,21.83
2017-09-29T00:43:34.061Z,21.97
2017-09-29T00:46:00.702Z,22.10
2017-09-29T00:48:27.319Z,22.87
2017-09-29T00:50:53.997Z,21.20
2017-09-29T00:53:20.612Z,21.00
2017-09-29T00:55:47.242Z,22.90
2017-09-29T00:58:13.898Z,23.30
2017-09-29T01:00:40.524Z,21.90
2017-09-29T01:03:07.156Z,22.53
2017-09-29T01:05:33.787Z,22.30
2017-09-29T01:08:00.435Z,25.10
2017-09-29T01:10:27.071Z,24.23
2017-09-29T01:12:53.698Z,23.87
2017-09-29T01:15:20.334Z,20.43
2017-09-29T01:17:46.967Z,22.93
2017-09-29T01:20:13.585Z,22.70
2017-09-29T01:22:40.222Z,23.47
2017-09-29T01:25:06.851Z,23.50
2017-09-29T01:27:33.466Z,25.60
2017-09-29T01:30:00.117Z,26.67
2017-09-29T01:32:26.751Z,27.10
2017-09-29T01:34:53.392Z,29.70
2017-09-29T01:37:20.001Z,27.90
2017-09-29T01:39:46.642Z,29.03
2017-09-29T01:42:13.260Z,28.30
2017-09-29T01:44:39.876Z,28.00
2017-09-29T01:47:06.519Z,27.00
2017-09-29T01:49:33.139Z,27.03
2017-09-29T01:51:59.783Z,27.70
2017-09-29T01:54:26.468Z,26.50
2017-09-29T01:56:53.107Z,25.57
2017-09-29T01:59:19.755Z,26.27
2017-09-29T02:01:46.375Z,26.10
2017-09-29T02:04:13.001Z,26.40
2017-09-29T02:06:39.638Z,28.77
2017-09-29T02:09:06.263Z,22.87
2017-09-29T02:11:32.883Z,22.60
2017-09-29T02:13:59.515Z,21.67
2017-09-29T02:16:26.171Z,23.17
2017-09-29T02:18:52.808Z,20.17
2017-09-29T02:21:19.426Z,22.30
2017-09-29T02:23:46.055Z,20.00
2017-09-29T02:26:12.704Z,19.43
2017-09-29T02:28:39.376Z,20.77
2017-09-29T02:31:05.984Z,20.73
2017-09-29T02:33:32.643Z,20.87
2017-09-29T02:35:59.259Z,20.60
2017-09-29T02:38:25.939Z,20.23
2017-09-29T02:40:52.582Z,19.77
2017-09-29T02:43:19.206Z,20.80
2017-09-29T02:45:46.253Z,22.10
2017-09-29T02:48:12.855Z,21.07
2017-09-29T02:50:39.507Z,21.00
2017-09-29T02:53:06.132Z,21.10
2017-09-29T02:55:32.790Z,21.00
2017-09-29T02:58:00.514Z,23.97
2017-09-29T03:00:27.355Z,21.80
2017-09-29T03:02:54.191Z,24.27
2017-09-29T03:05:21.035Z,20.80
2017-09-29T03:07:47.680Z,21.70
2017-09-29T03:10:14.344Z,21.27
2017-09-29T03:12:41.051Z,23.20
2017-09-29T03:15:07.670Z,21.90
2017-09-29T03:17:34.316Z,23.77
2017-09-29T03:20:00.923Z,22.90
2017-09-29T03:22:27.551Z,24.10
2017-09-29T03:24:54.203Z,25.70
2017-09-29T03:27:20.814Z,24.00
2017-09-29T03:29:47.424Z,24.53
2017-09-29T03:32:14.076Z,21.57
2017-09-29T03:34:40.707Z,24.93
2017-09-29T03:37:07.348Z,22.57
2017-09-29T03:39:33.999Z,24.23
2017-09-29T03:42:00.638Z,24.00
2017-09-29T03:44:27.279Z,22.93
2017-09-29T03:46:53.893Z,22.20
2017-09-29T03:49:20.522Z,22.53
2017-09-29T03:51:48.286Z,19.80
2017-09-29T03:54:15.250Z,21.77
2017-09-29T03:56:42.970Z,23.30
2017-09-29T03:59:12.532Z,24.20
2017-09-29T04:01:39.547Z,22.90
2017-09-29T04:04:06.419Z,21.53
2017-09-29T04:06:33.053Z,22.77
2017-09-29T04:08:59.699Z,21.53
2017-09-29T04:11:26.329Z,21.70
2017-09-29T04:13:52.968Z,22.23
2017-09-29T04:16:19.610Z,20.80
2017-09-29T04:18:46.565Z,21.10
2017-09-29T04:21:13.581Z,22.00
2017-09-29T04:23:40.219Z,22.83
2017-09-29T04:26:06.844Z,21.50
2017-09-29T04:28:33.484Z,22.07
2017-09-29T04:31:00.130Z,23.17
2017-09-29T04:33:26.762Z,23.60
2017-09-29T04:35:53.404Z,22.13
2017-09-29T04:38:20.040Z,20.50
2017-09-29T04:40:46.687Z,21.27
2017-09-29T04:43:13.308Z,22.40
2017-09-29T04:45:39.962Z,22.33
2017-09-29T04:48:06.608Z,21.80
2017-09-29T04:50:33.267Z,22.13
2017-09-29T04:52:59.896Z,21.67
2017-09-29T04:55:26.525Z,21.20
2017-09-29T04:57:53.163Z,21.73
2017-09-29T05:00:19.832Z,21.57
2017-09-29T05:02:46.451Z,20.70
2017-09-29T05:05:13.067Z,21.83
2017-09-29T05:07:39.706Z,22.17
2017-09-29T05:10:06.331Z,20.70
2017-09-29T05:12:32.967Z,22.17
2017-09-29T05:14:59.591Z,24.03
2017-09-29T05:17:26.242Z,22.50
2017-09-29T05:19:52.864Z,24.03
2017-09-29T05:22:19.500Z,22.73
2017-09-29T05:24:46.436Z,22.90
2017-09-29T05:27:13.066Z,24.10
2017-09-29T05:29:39.722Z,23.13
2017-09-29T05:32:06.367Z,23.03
2017-09-29T05:34:32.966Z,20.63
2017-09-29T05:36:59.616Z,20.60
2017-09-29T05:39:26.257Z,22.70
2017-09-29T05:41:52.888Z,21.70
2017-09-29T05:44:19.533Z,22.27
2017-09-29T05:46:46.166Z,21.50
2017-09-29T05:49:13.176Z,23.10
2017-09-29T05:51:39.811Z,21.83
2017-09-29T05:54:06.435Z,21.27
2017-09-29T05:56:33.071Z,21.30
2017-09-29T05:58:59.702Z,23.67
2017-09-29T06:01:26.343Z,23.83
2017-09-29T06:03:52.963Z,24.40
2017-09-29T06:06:19.581Z,25.77
2017-09-29T06:08:46.244Z,23.17
2017-09-29T06:11:12.862Z,25.60
2017-09-29T06:13:39.490Z,31.33
2017-09-29T06:16:06.125Z,23.43
2017-09-29T06:18:32.747Z,25.10
2017-09-29T06:20:59.382Z,25.17
2017-09-29T06:23:26.019Z,23.33
2017-09-29T06:25:52.651Z,25.10
2017-09-29T06:28:19.274Z,22.03
2017-09-29T06:30:45.928Z,23.70
2017-09-29T06:33:12.566Z,23.80
2017-09-29T06:35:39.215Z,23.27
2017-09-29T06:38:05.838Z,23.37
2017-09-29T06:40:32.459Z,24.33
2017-09-29T06:42:59.112Z,25.13
2017-09-29T06:45:25.860Z,24.90
2017-09-29T06:47:52.463Z,26.10
2017-09-29T06:50:19.089Z,25.37
2017-09-29T06:52:45.714Z,25.40
2017-09-29T06:55:12.351Z,26.90
2017-09-29T06:57:38.981Z,27.80
2017-09-29T07:00:05.630Z,24.97
2017-09-29T07:02:32.277Z,25.70
2017-09-29T07:04:58.940Z,26.97
2017-09-29T07:07:25.582Z,24.90
2017-09-29T07:09:52.218Z,25.33
2017-09-29T07:12:18.838Z,28.90
2017-09-29T07:14:45.511Z,24.47
2017-09-29T07:17:12.145Z,24.27
2017-09-29T07:19:38.781Z,27.90
2017-09-29T07:22:05.430Z,26.73
2017-09-29T07:24:33.687Z,27.53
2017-09-29T07:27:01.520Z,26.30
2017-09-29T07:29:28.779Z,30.57
2017-09-29T07:31:55.903Z,30.50
2017-09-29T07:34:22.555Z,30.10
2017-09-29T07:36:49.192Z,26.43
2017-09-29T07:39:15.833Z,27.23
2017-09-29T07:41:42.470Z,26.90
2017-09-29T07:44:09.106Z,27.30
2017-09-29T07:46:35.752Z,28.67
2017-09-29T07:49:02.388Z,28.10
2017-09-29T07:51:29.013Z,28.37
2017-09-29T07:53:55.635Z,25.90
2017-09-29T07:56:22.250Z,28.17
2017-09-29T07:58:48.871Z,31.90
2017-09-29T08:01:15.523Z,27.77
2017-09-29T08:03:42.171Z,28.50
2017-09-29T08:06:08.870Z,26.17
2017-09-29T08:08:35.495Z,24.90
2017-09-29T08:11:02.135Z,24.27
2017-09-29T08:13:28.760Z,24.00
2017-09-29T08:15:55.390Z,24.97
2017-09-29T08:18:22.015Z,25.77
2017-09-29T08:20:48.647Z,26.57
2017-09-29T08:23:15.291Z,23.93
2017-09-29T08:25:41.915Z,27.20
2017-09-29T08:28:08.555Z,28.87
2017-09-29T08:30:35.301Z,26.20
2017-09-29T08:33:02.013Z,25.30
2017-09-29T08:35:28.643Z,23.57
2017-09-29T08:37:55.259Z,24.77
2017-09-29T08:40:21.908Z,23.73
2017-09-29T08:42:48.536Z,22.13
2017-09-29T08:45:15.173Z,21.43
2017-09-29T08:47:41.787Z,25.23
2017-09-29T08:50:08.431Z,22.10
2017-09-29T08:52:35.059Z,21.87
2017-09-29T08:55:01.710Z,21.27
2017-09-29T08:57:28.339Z,21.23
2017-09-29T08:59:54.983Z,21.53
2017-09-29T09:02:21.603Z,19.60
2017-09-29T09:04:48.267Z,18.50
2017-09-29T09:07:14.882Z,18.03
2017-09-29T09:09:41.515Z,18.33
2017-09-29T09:12:08.719Z,17.07
2017-09-29T09:14:35.391Z,16.37
2017-09-29T09:17:02.024Z,16.37
2017-09-29T09:19:28.640Z,16.27
2017-09-29T09:21:55.288Z,13.73
2017-09-29T09:24:21.936Z,12.00
2017-09-29T09:26:48.550Z,14.60
2017-09-29T09:29:15.178Z,13.90
2017-09-29T09:31:41.795Z,14.97
2017-09-29T09:34:08.435Z,13.20
2017-09-29T09:36:35.077Z,13.83
2017-09-29T09:39:01.710Z,11.87
2017-09-29T09:41:28.356Z,11.90
2017-09-29T09:43:55.289Z,11.80
2017-09-29T09:46:21.915Z,13.10
2017-09-29T09:48:48.560Z,12.90
2017-09-29T09:51:15.179Z,11.50
2017-09-29T09:53:41.808Z,12.80
2017-09-29T09:56:08.441Z,11.20
2017-09-29T09:58:35.082Z,11.00
2017-09-29T10:01:01.713Z,9.57
2017-09-29T10:03:28.331Z,9.20
2017-09-29T10:05:55.004Z,11.20
2017-09-29T10:08:21.651Z,8.93
2017-09-29T10:10:48.271Z,7.60
2017-09-29T10:13:14.878Z,9.03
2017-09-29T10:15:41.523Z,9.50
2017-09-29T10:18:08.137Z,11.43
2017-09-29T10:20:34.778Z,9.23
2017-09-29T10:23:01.404Z,8.30
2017-09-29T10:25:28.047Z,8.30
2017-09-29T10:27:54.719Z,6.90
2017-09-29T10:30:21.327Z,7.40
2017-09-29T10:32:47.987Z,8.30
2017-09-29T10:35:14.595Z,6.43
2017-09-29T10:37:41.239Z,7.43
2017-09-29T10:40:07.881Z,8.83
2017-09-29T10:42:34.528Z,10.93
2017-09-29T10:45:01.147Z,9.53
2017-09-29T10:47:27.788Z,12.17
2017-09-29T10:49:54.398Z,10.00
2017-09-29T10:52:21.038Z,9.00
2017-09-29T10:54:47.674Z,8.20
2017-09-29T10:57:14.298Z,8.13
2017-09-29T10:59:40.910Z,9.80
2017-09-29T11:02:07.556Z,7.73
2017-09-29T11:04:34.183Z,8.20
2017-09-29T11:07:00.805Z,7.97
2017-09-29T11:09:27.442Z,8.20
2017-09-29T11:11:54.086Z,6.73
2017-09-29T11:14:20.692Z,8.20
2017-09-29T11:16:47.339Z,7.50
2017-09-29T11:19:13.975Z,7.77
2017-09-29T11:21:40.608Z,7.47
2017-09-29T11:24:07.215Z,5.90
2017-09-29T11:26:33.847Z,5.90
2017-09-29T11:29:00.470Z,4.90
2017-09-29T11:31:27.092Z,4.90
2017-09-29T11:33:53.726Z,6.80
2017-09-29T11:36:20.341Z,5.90
2017-09-29T11:38:46.978Z,5.87
2017-09-29T11:41:13.613Z,5.30
2017-09-29T11:43:40.227Z,6.40
2017-09-29T11:46:06.872Z,5.30
2017-09-29T11:48:33.511Z,6.07
2017-09-29T11:51:00.121Z,5.87
2017-09-29T11:53:26.767Z,4.70
2017-09-29T11:55:53.402Z,5.77
2017-09-29T11:58:20.062Z,5.70
2017-09-29T12:00:46.676Z,5.30
2017-09-29T12:03:13.298Z,5.83
2017-09-29T12:05:39.920Z,5.37
2017-09-29T12:08:06.548Z,4.27
2017-09-29T12:10:33.186Z,5.20
2017-09-29T12:12:59.788Z,4.70
2017-09-29T12:15:26.405Z,4.00
2017-09-29T12:17:53.084Z,4.33
2017-09-29T12:20:19.690Z,4.53
2017-09-29T12:22:46.329Z,4.70
2017-09-29T12:25:12.975Z,4.07
2017-09-29T12:27:39.595Z,4.00
2017-09-29T12:30:06.231Z,3.67
2017-09-29T12:32:32.839Z,5.10
2017-09-29T12:34:59.457Z,4.17
2017-09-29T12:37:26.477Z,3.63
2017-09-29T12:39:53.122Z,4.80
2017-09-29T12:42:19.779Z,3.70
2017-09-29T12:44:46.394Z,3.07
2017-09-29T12:47:13.019Z,3.10
2017-09-29T12:49:39.642Z,3.40
2017-09-29T12:52:06.289Z,3.50
2017-09-29T12:54:32.906Z,4.03
2017-09-29T12:56:59.530Z,3.20
2017-09-29T12:59:26.177Z,3.10
2017-09-29T13:01:52.779Z,3.83
2017-09-29T13:04:19.395Z,2.83
2017-09-29T13:06:46.023Z,3.90
2017-09-29T13:09:12.671Z,3.10
2017-09-29T13:11:39.309Z,2.73
2017-09-29T13:14:05.908Z,3.00
2017-09-29T13:16:32.551Z,3.90
2017-09-29T13:18:59.178Z,3.07
2017-09-29T13:21:25.823Z,3.27
2017-09-29T13:23:52.438Z,3.40
2017-09-29T13:26:19.092Z,3.97
2017-09-29T13:28:45.703Z,3.83
2017-09-29T13:31:12.358Z,2.40
2017-09-29T13:33:38.991Z,3.20
2017-09-29T13:36:05.604Z,2.60
2017-09-29T13:38:32.246Z,3.27
2017-09-29T13:40:58.891Z,2.37
2017-09-29T13:43:25.556Z,3.20
2017-09-29T13:45:52.270Z,2.97
2017-09-29T13:48:18.927Z,2.80
2017-09-29T13:50:45.611Z,3.37
2017-09-29T13:53:12.235Z,3.23
2017-09-29T13:55:38.866Z,3.87
2017-09-29T13:58:05.491Z,3.57
2017-09-29T14:00:32.136Z,3.40
2017-09-29T14:02:58.767Z,3.03
2017-09-29T14:05:25.404Z,2.47
2017-09-29T14:07:52.410Z,3.10
2017-09-29T14:10:19.054Z,2.90
2017-09-29T14:12:45.665Z,2.53
2017-09-29T14:15:12.351Z,3.47
2017-09-29T14:17:38.968Z,2.63
2017-09-29T14:20:05.580Z,3.03
2017-09-29T14:22:32.236Z,2.33
2017-09-29T14:24:58.851Z,2.10
2017-09-29T14:27:25.507Z,2.70
2017-09-29T14:29:52.138Z,2.30
2017-09-29T14:32:19.052Z,2.77
2017-09-29T14:34:45.665Z,2.33
2017-09-29T14:37:12.276Z,2.43
2017-09-29T14:39:38.899Z,2.40
2017-09-29T14:42:05.507Z,2.93
2017-09-29T14:44:32.190Z,2.40
2017-09-29T14:46:58.818Z,2.10
2017-09-29T14:49:25.432Z,2.67
2017-09-29T14:51:52.068Z,3.10
2017-09-29T14:54:18.706Z,2.80
2017-09-29T14:56:45.345Z,2.03
2017-09-29T14:59:12.015Z,2.30
2017-09-29T15:01:38.615Z,3.00
2017-09-29T15:04:05.238Z,3.50
2017-09-29T15:06:31.878Z,3.43
2017-09-29T15:08:58.517Z,2.83
2017-09-29T15:11:25.154Z,2.73
2017-09-29T15:13:51.788Z,3.33
2017-09-29T15:16:18.451Z,2.90
2017-09-29T15:18:45.082Z,2.70
2017-09-29T15:21:11.737Z,2.83
2017-09-29T15:23:39.257Z,2.90
2017-09-29T15:26:05.877Z,3.23
2017-09-29T15:28:32.499Z,3.17
2017-09-29T15:30:59.150Z,2.70
2017-09-29T15:33:25.807Z,3.10
2017-09-29T15:35:52.427Z,2.57
2017-09-29T15:38:19.060Z,3.10
2017-09-29T15:40:45.678Z,2.83
2017-09-29T15:43:12.306Z,3.87
2017-09-29T15:45:38.945Z,4.37
2017-09-29T15:48:05.569Z,4.10
2017-09-29T15:50:32.206Z,3.00
2017-09-29T15:52:58.849Z,4.17
2017-09-29T15:55:25.489Z,3.77
2017-09-29T15:57:52.115Z,2.70
2017-09-29T16:00:18.748Z,3.70
2017-09-29T16:02:45.386Z,3.50
2017-09-29T16:05:12.044Z,3.10
2017-09-29T16:07:38.684Z,3.97
2017-09-29T16:10:05.327Z,3.80
2017-09-29T16:12:31.944Z,2.90
2017-09-29T16:14:58.589Z,4.43
2017-09-29T16:17:25.216Z,3.93
2017-09-29T16:19:51.823Z,3.40
2017-09-29T16:22:18.436Z,3.77
2017-09-29T16:24:45.078Z,3.27
2017-09-29T16:27:11.699Z,3.43
2017-09-29T16:29:38.331Z,3.83
2017-09-29T16:32:04.943Z,3.70
2017-09-29T16:34:31.575Z,3.53
2017-09-29T16:36:58.199Z,4.37
2017-09-29T16:39:24.848Z,3.70
2017-09-29T16:41:51.494Z,4.57
2017-09-29T16:44:18.143Z,4.33
2017-09-29T16:46:44.767Z,3.97
2017-09-29T16:49:11.427Z,4.37
2017-09-29T16:51:38.043Z,4.50
2017-09-29T16:54:04.676Z,5.20
2017-09-29T16:56:31.323Z,4.50
2017-09-29T16:58:57.959Z,4.10
2017-09-29T17:01:24.586Z,3.93
2017-09-29T17:03:51.215Z,4.33
2017-09-29T17:06:17.860Z,4.50
2017-09-29T17:08:44.513Z,4.20
2017-09-29T17:11:11.123Z,4.57
2017-09-29T17:13:37.779Z,3.83
2017-09-29T17:16:04.392Z,4.30
2017-09-29T17:18:31.053Z,4.00
2017-09-29T17:20:57.673Z,4.50
2017-09-29T17:23:24.312Z,4.10
2017-09-29T17:25:50.948Z,3.70
2017-09-29T17:28:17.597Z,3.20
2017-09-29T17:30:44.206Z,4.63
2017-09-29T17:33:10.843Z,4.23
2017-09-29T17:35:37.488Z,4.10
2017-09-29T17:38:04.099Z,4.10
2017-09-29T17:40:30.761Z,3.60
2017-09-29T17:42:57.378Z,3.60
2017-09-29T17:45:24.025Z,3.60
2017-09-29T17:47:50.676Z,4.03
2017-09-29T17:50:17.312Z,4.13
2017-09-29T17:52:43.972Z,4.57
2017-09-29T17:55:10.594Z,3.83
2017-09-29T17:57:37.204Z,4.53
2017-09-29T18:00:03.838Z,4.20
2017-09-29T18:02:30.486Z,5.00
2017-09-29T18:04:57.119Z,5.17
2017-09-29T18:07:23.734Z,4.50
2017-09-29T18:09:50.397Z,4.47
2017-09-29T18:12:17.027Z,5.30
2017-09-29T18:14:43.666Z,5.20
2017-09-29T18:17:10.332Z,4.87
2017-09-29T18:19:37.017Z,5.83
2017-09-29T18:22:03.659Z,5.57
2017-09-29T18:24:30.320Z,4.80
2017-09-29T18:26:56.960Z,5.17
2017-09-29T18:29:23.858Z,5.67
2017-09-29T18:31:50.534Z,5.23
2017-09-29T18:34:17.467Z,5.60
2017-09-29T18:36:44.436Z,5.33
2017-09-29T18:39:12.150Z,5.50
2017-09-29T18:41:49.014Z,5.60
2017-09-29T18:44:17.467Z,5.23
2017-09-29T18:46:44.392Z,5.70
2017-09-29T18:49:11.083Z,6.00
2017-09-29T18:51:37.720Z,6.23
2017-09-29T18:54:04.353Z,6.50
2017-09-29T18:56:30.992Z,7.13
2017-09-29T18:58:57.643Z,6.70
2017-09-29T19:01:24.325Z,6.10
2017-09-29T19:03:51.250Z,7.83
2017-09-29T19:06:17.920Z,6.97
2017-09-29T19:08:44.819Z,6.10
2017-09-29T19:11:11.562Z,7.47
2017-09-29T19:13:38.243Z,7.20
2017-09-29T19:16:04.887Z,6.07
2017-09-29T19:18:31.525Z,7.53
2017-09-29T19:20:58.212Z,5.60
2017-09-29T19:23:24.884Z,7.70
2017-09-29T19:25:51.552Z,8.83
2017-09-29T19:28:18.172Z,6.70
2017-09-29T19:30:44.861Z,7.77
2017-09-29T19:33:11.499Z,7.20
2017-09-29T19:35:38.103Z,5.60
2017-09-29T19:38:04.797Z,6.30
2017-09-29T19:40:31.421Z,6.97
2017-09-29T19:42:58.328Z,6.63
2017-09-29T19:45:25.007Z,7.17
2017-09-29T19:47:51.880Z,6.47
2017-09-29T19:50:18.859Z,5.33
2017-09-29T19:52:45.816Z,6.67
2017-09-29T19:55:12.779Z,6.03
2017-09-29T19:57:39.754Z,6.73
2017-09-29T20:00:06.443Z,5.50
2017-09-29T20:02:33.349Z,6.00
2017-09-29T20:05:00.164Z,6.07
2017-09-29T20:07:26.936Z,6.03
2017-09-29T20:09:53.555Z,6.30
2017-09-29T20:12:20.205Z,6.43
2017-09-29T20:14:46.838Z,6.80
2017-09-29T20:17:13.468Z,6.43
2017-09-29T20:19:40.119Z,6.70
2017-09-29T20:22:06.767Z,6.83
2017-09-29T20:24:33.395Z,7.03
2017-09-29T20:27:00.022Z,6.00
2017-09-29T20:29:26.640Z,5.80
2017-09-29T20:31:53.270Z,7.17
2017-09-29T20:34:19.949Z,6.33
2017-09-29T20:36:46.688Z,6.97
2017-09-29T20:39:13.320Z,7.77
2017-09-29T20:41:39.955Z,8.03
2017-09-29T20:44:06.583Z,7.67
2017-09-29T20:46:33.253Z,7.67
2017-09-29T20:48:59.892Z,7.07
2017-09-29T20:51:26.519Z,6.50
2017-09-29T20:53:53.196Z,8.60
2017-09-29T20:56:19.834Z,7.87
2017-09-29T20:58:46.469Z,7.53
2017-09-29T21:01:13.138Z,8.10
2017-09-29T21:03:39.771Z,8.00
2017-09-29T21:06:06.411Z,8.20
2017-09-29T21:08:33.039Z,8.20
2017-09-29T21:10:59.676Z,8.87
2017-09-29T21:13:26.331Z,8.90
2017-09-29T21:15:52.968Z,7.90
2017-09-29T21:18:19.627Z,8.17
2017-09-29T21:20:46.231Z,7.90
2017-09-29T21:23:12.895Z,9.53
2017-09-29T21:25:39.539Z,9.20
2017-09-29T21:28:06.157Z,7.27
2017-09-29T21:30:32.798Z,8.00
2017-09-29T21:32:59.412Z,7.90
2017-09-29T21:35:26.076Z,8.70
2017-09-29T21:37:52.763Z,9.30
2017-09-29T21:40:19.384Z,8.10
2017-09-29T21:42:46.014Z,8.83
2017-09-29T21:45:12.823Z,8.30
2017-09-29T21:47:39.442Z,8.63
2017-09-29T21:50:06.089Z,7.30
2017-09-29T21:52:32.755Z,8.13
2017-09-29T21:54:59.395Z,7.03
2017-09-29T21:57:26.030Z,8.53
2017-09-29T21:59:52.694Z,7.23
2017-09-29T22:02:19.307Z,8.07
2017-09-29T22:04:45.947Z,7.70
2017-09-29T22:07:12.565Z,7.97
2017-09-29T22:09:39.214Z,7.53
2017-09-29T22:12:05.859Z,9.27
2017-09-29T22:14:32.496Z,7.30
2017-09-29T22:16:59.120Z,7.87
2017-09-29T22:19:25.748Z,7.30
2017-09-29T22:21:52.416Z,8.37
2017-09-29T22:24:19.042Z,7.43
2017-09-29T22:26:45.660Z,7.77
2017-09-29T22:29:12.299Z,9.17
2017-09-29T22:31:38.933Z,7.13
2017-09-29T22:34:05.551Z,7.97
2017-09-29T22:36:32.182Z,7.60
2017-09-29T22:38:58.832Z,7.63
2017-09-29T22:41:25.479Z,8.07
2017-09-29T22:43:52.101Z,8.70
2017-09-29T22:46:18.723Z,7.30
2017-09-29T22:48:45.359Z,7.90
2017-09-29T22:51:12.013Z,8.40
2017-09-29T22:53:38.630Z,7.90
2017-09-29T22:56:05.265Z,7.80
2017-09-29T22:58:31.884Z,9.23
2017-09-29T23:00:58.500Z,8.30
2017-09-29T23:03:25.136Z,7.90
2017-09-29T23:05:51.758Z,8.00
2017-09-29T23:08:18.387Z,7.30
2017-09-29T23:10:45.026Z,9.20
2017-09-29T23:13:11.647Z,8.07
2017-09-29T23:15:38.298Z,13.63
2017-09-29T23:18:04.912Z,9.23
2017-09-29T23:20:31.553Z,15.17
2017-09-29T23:22:58.190Z,13.40
2017-09-29T23:25:24.860Z,14.43
2017-09-29T23:27:51.466Z,13.20
2017-09-29T23:30:18.110Z,15.17
2017-09-29T23:32:44.768Z,13.20
2017-09-29T23:35:11.419Z,13.43
2017-09-29T23:37:38.063Z,11.07
2017-09-29T23:40:04.720Z,13.57
2017-09-29T23:42:31.370Z,13.80
2017-09-29T23:44:58.007Z,13.37
2017-09-29T23:47:24.629Z,13.60
2017-09-29T23:49:51.274Z,13.87
2017-09-29T23:52:17.906Z,14.13
2017-09-29T23:54:44.539Z,12.70
2017-09-29T23:57:11.155Z,11.53
2017-09-29T23:59:37.785Z,12.40
